Time;durP1;ratioP1;P1;durP2;ratioP2;P2;SDS_P1;SDS_P2;PMS_P1;PMS_P2;Temp;Humidity;BMP_temperature;BMP_pressure;BME280_temperature;BME280_humidity;BME280_pressure;Samples;Min_cycle;Max_cycle;Signal;HPM_P1;HPM_P2
2021/08/07 10:07:23;;;;;;;4.22;0.88;;;;;;;21.63;61.50;98034.22;5090307;27;20377;-83
2021/08/07 10:09:50;;;;;;;2.67;1.90;;;;;;;21.59;64.33;98022.06;5090761;27;20060;-82
2021/08/07 10:12:17;;;;;;;3.45;1.10;;;;;;;21.50;63.78;98044.78;5075741;28;20137;-81
2021/08/07 10:14:45;;;;;;;1.92;1.08;;;;;;;21.62;64.67;98050.00;5080391;28;20127;-83
2021/08/07 10:17:14;;;;;;;2.42;1.20;;;;;;;21.39;69.05;98026.56;5088536;28;20052;-81
2021/08/07 10:19:41;;;;;;;6.63;1.05;;;;;;;21.41;71.30;98038.19;5089372;28;20503;-82
2021/08/07 10:22:10;;;;;;;4.85;1.33;;;;;;;21.32;71.89;98035.16;5078303;28;20110;-82
2021/08/07 10:24:39;;;;;;;1.73;1.30;;;;;;;21.24;74.92;98030.22;5071110;28;20407;-81
2021/08/07 10:27:07;;;;;;;2.58;1.10;;;;;;;21.17;75.80;98002.88;5087764;28;20047;-80
2021/08/07 10:29:36;;;;;;;5.93;1.30;;;;;;;21.03;76.16;98015.63;5088406;28;20045;-80
2021/08/07 10:32:04;;;;;;;4.28;1.10;;;;;;;21.18;77.51;98026.66;5083794;28;20049;-80
2021/08/07 10:34:33;;;;;;;4.22;1.60;;;;;;;21.18;78.80;98020.28;5068451;28;20071;-81
2021/08/07 10:37:00;;;;;;;2.47;1.38;;;;;;;21.26;78.88;98008.66;5081180;28;20066;-81
2021/08/07 10:39:29;;;;;;;3.85;1.20;;;;;;;20.99;80.45;97990.53;5087869;28;20496;-81
2021/08/07 10:42:00;;;;;;;2.40;1.25;;;;;;;21.04;80.86;97993.25;5088108;28;20059;-81
2021/08/07 10:44:28;;;;;;;5.60;1.75;;;;;;;20.80;83.21;97997.75;5087836;28;20088;-81
2021/08/07 10:46:55;;;;;;;4.38;1.60;;;;;;;20.63;79.75;98006.34;5081260;28;20066;-81
2021/08/07 10:49:34;;;;;;;3.97;1.60;;;;;;;20.71;81.31;98002.22;5087509;28;20487;-81
2021/08/07 10:52:01;;;;;;;6.88;1.83;;;;;;;20.62;82.34;97985.34;5088219;28;20055;-82
2021/08/07 10:54:46;;;;;;;4.43;1.48;;;;;;;20.56;81.15;97984.53;5083494;28;20040;-80
2021/08/07 10:57:34;;;;;;;3.97;1.70;;;;;;;20.37;82.36;97967.75;5068786;28;20053;-79
2021/08/07 11:00:02;;;;;;;7.20;1.75;;;;;;;20.25;81.77;97972.69;5087736;28;20407;-80
2021/08/07 11:02:29;;;;;;;2.17;1.70;;;;;;;20.18;81.67;97986.78;5088025;28;20129;-80
2021/08/07 11:04:55;;;;;;;2.88;1.83;;;;;;;20.22;80.87;97971.34;5074469;28;20071;-80
2021/08/07 11:07:23;;;;;;;4.55;1.52;;;;;;;19.92;83.83;97961.97;5067999;28;20076;-80
2021/08/07 11:10:04;;;;;;;3.08;1.65;;;;;;;19.92;83.22;97939.09;5075136;28;20043;-80
2021/08/07 11:12:33;;;;;;;2.65;1.52;;;;;;;19.88;83.85;97976.56;5066639;28;20052;-80
2021/08/07 11:15:14;;;;;;;7.07;2.20;;;;;;;19.64;86.21;97977.88;5067182;28;20056;-79
2021/08/07 11:17:51;;;;;;;8.20;2.28;;;;;;;19.68;88.00;97999.41;5058873;28;20044;-79
2021/08/07 11:20:43;;;;;;;7.53;2.75;;;;;;;19.68;86.47;98010.44;5053875;28;20045;-79
2021/08/07 11:23:18;;;;;;;5.70;1.73;;;;;;;19.48;89.51;98016.72;5052232;28;20102;-80
2021/08/07 11:25:59;;;;;;;5.53;2.45;;;;;;;19.23;86.94;97996.25;5053381;28;20040;-80
2021/08/07 11:28:31;;;;;;;7.47;2.20;;;;;;;19.12;87.55;98002.81;5053026;28;20060;-80
2021/08/07 11:31:21;;;;;;;5.28;1.98;;;;;;;19.14;84.60;98006.97;5053585;28;20063;-80
2021/08/07 11:34:03;;;;;;;5.18;1.90;;;;;;;19.06;86.62;98016.56;5072004;28;20114;-80
2021/08/07 11:36:30;;;;;;;4.55;2.08;;;;;;;18.76;88.84;98025.47;5066492;28;20460;-80
2021/08/07 11:39:04;;;;;;;5.78;3.08;;;;;;;18.84;87.16;98037.91;5059680;28;20065;-80
2021/08/07 11:41:36;;;;;;;5.05;1.90;;;;;;;18.58;89.41;98048.75;5059271;28;20483;-80
2021/08/07 11:44:06;;;;;;;5.93;1.70;;;;;;;18.54;89.35;98033.84;5057477;28;20056;-80
2021/08/07 11:49:42;;;;;;;5.35;1.92;;;;;;;18.43;90.18;98043.09;5052882;28;20061;-80
2021/08/07 11:52:09;;;;;;;4.32;1.80;;;;;;;18.42;90.21;98055.22;5053526;28;20522;-80
2021/08/07 11:54:36;;;;;;;3.63;2.15;;;;;;;18.33;90.65;98032.88;5052024;28;20451;-80
2021/08/07 11:57:03;;;;;;;5.15;2.10;;;;;;;18.42;90.63;98047.78;5052349;28;20052;-80
2021/08/07 11:59:31;;;;;;;4.13;1.60;;;;;;;18.38;89.27;98049.41;5060058;28;21187;-80
2021/08/07 12:02:14;;;;;;;4.60;1.80;;;;;;;18.34;90.06;98038.09;5071718;28;20059;-80
2021/08/07 12:05:26;;;;;;;;;;;;;;;;;;;;;
2021/08/07 12:08:01;;;;;;;6.53;2.25;;;;;;;18.39;91.71;98023.56;5071052;28;20052;-79
2021/08/07 12:10:29;;;;;;;5.85;1.90;;;;;;;18.48;89.51;98026.66;5069781;28;20044;-79
2021/08/07 12:12:55;;;;;;;6.78;2.10;;;;;;;18.46;90.63;98035.19;5071885;28;20048;-80
2021/08/07 12:15:25;;;;;;;5.45;2.03;;;;;;;18.53;89.33;98034.94;5070457;28;20546;-80
2021/08/07 12:17:52;;;;;;;3.73;1.60;;;;;;;18.53;89.89;98029.44;5053498;28;20429;-80
2021/08/07 12:20:20;;;;;;;6.40;2.22;;;;;;;18.39;93.36;98029.06;5052952;28;20285;-80
2021/08/07 12:23:01;;;;;;;3.05;1.73;;;;;;;18.59;90.82;98039.38;5053906;28;20064;-80
2021/08/07 12:25:30;;;;;;;4.72;1.90;;;;;;;18.53;92.24;98038.53;5052884;28;20056;-80
2021/08/07 12:28:13;;;;;;;5.47;2.03;;;;;;;18.50;91.75;98024.44;5055832;28;20045;-80
2021/08/07 12:30:55;;;;;;;5.10;2.40;;;;;;;18.32;91.17;98001.78;5052270;28;20504;-79
2021/08/07 12:33:24;;;;;;;4.70;2.00;;;;;;;18.35;91.50;98004.00;5051997;28;20088;-79
2021/08/07 12:35:52;;;;;;;6.88;1.73;;;;;;;18.37;90.29;98015.56;5053170;28;20072;-79
2021/08/07 12:38:20;;;;;;;4.82;1.90;;;;;;;18.34;91.70;98016.09;5052029;28;20041;-79
2021/08/07 12:40:50;;;;;;;4.70;1.60;;;;;;;18.18;90.83;98008.81;5052228;28;20110;-79
2021/08/07 12:43:17;;;;;;;5.80;3.00;;;;;;;18.21;93.30;98025.59;5052498;28;20045;-79
2021/08/07 12:45:45;;;;;;;5.22;2.03;;;;;;;18.18;90.84;98031.63;5072202;28;20048;-79
2021/08/07 12:48:13;;;;;;;3.85;1.70;;;;;;;18.10;91.82;98039.56;5072617;28;20056;-79
2021/08/07 12:50:40;;;;;;;5.70;1.90;;;;;;;18.04;92.36;98057.94;5069901;28;20581;-79
2021/08/07 12:53:07;;;;;;;7.93;3.15;;;;;;;18.02;93.49;98046.34;5072505;28;20113;-79
2021/08/07 12:55:49;;;;;;;5.65;1.80;;;;;;;17.85;92.73;98032.69;5057031;28;20547;-79
2021/08/07 12:58:19;;;;;;;3.78;1.83;;;;;;;17.93;92.28;98051.50;5057650;28;20121;-79
2021/08/07 13:00:46;;;;;;;4.82;2.53;;;;;;;17.82;92.32;98050.53;5060908;28;20052;-79
2021/08/07 13:03:15;;;;;;;9.55;2.10;;;;;;;17.96;93.95;98070.22;5062078;28;20128;-79
2021/08/07 13:05:43;;;;;;;3.35;2.20;;;;;;;17.93;94.65;98068.00;5063518;28;20381;-80
2021/08/07 13:08:30;;;;;;;7.30;3.00;;;;;;;17.97;95.23;98071.06;5061969;28;20182;-79
2021/08/07 13:11:11;;;;;;;7.47;2.58;;;;;;;18.03;93.27;98065.31;5059360;28;20103;-79
2021/08/07 13:13:39;;;;;;;4.68;2.05;;;;;;;17.95;94.13;98063.06;5065107;28;20040;-80
2021/08/07 13:16:06;;;;;;;2.80;1.75;;;;;;;17.92;92.28;98071.84;5061290;28;20487;-79
2021/08/07 13:18:34;;;;;;;4.20;2.08;;;;;;;17.79;93.84;98077.72;5062098;28;20044;-79
2021/08/07 13:21:01;;;;;;;7.53;2.22;;;;;;;17.67;92.88;98070.47;5066039;28;20052;-79
2021/08/07 13:23:36;;;;;;;4.30;2.05;;;;;;;17.67;93.42;98078.69;5064421;28;20049;-79
2021/08/07 13:26:05;;;;;;;12.98;2.72;;;;;;;17.59;93.34;98065.41;5056794;28;20049;-79
2021/08/07 13:28:32;;;;;;;5.60;2.17;;;;;;;17.68;94.52;98077.59;5059076;28;20072;-80
2021/08/07 13:30:59;;;;;;;6.95;1.92;;;;;;;17.49;94.94;98082.63;5057278;28;20045;-80
2021/08/07 13:33:27;;;;;;;3.80;2.10;;;;;;;17.39;95.08;98085.22;5053275;28;20562;-81
2021/08/07 13:35:56;;;;;;;3.20;1.98;;;;;;;17.42;96.60;98103.94;5056613;28;20664;-80
2021/08/07 13:38:27;;;;;;;3.00;1.70;;;;;;;17.26;96.13;98104.84;5057059;28;20066;-80
2021/08/07 13:41:14;;;;;;;5.22;2.10;;;;;;;17.20;95.99;98108.59;5056019;28;20061;-80
2021/08/07 13:43:41;;;;;;;7.32;1.70;;;;;;;17.14;94.46;98103.03;5061600;28;20414;-80
2021/08/07 13:46:10;;;;;;;7.78;2.47;;;;;;;17.07;97.07;98099.66;5069991;28;20060;-81
2021/08/07 13:48:38;;;;;;;3.58;1.70;;;;;;;16.92;96.24;98082.94;5060447;28;20094;-81
2021/08/07 13:51:07;;;;;;;6.28;2.05;;;;;;;16.98;96.63;98081.94;5051663;28;20049;-81
2021/08/07 13:53:33;;;;;;;5.97;1.80;;;;;;;17.01;95.54;98081.41;5050313;28;20045;-81
2021/08/07 13:56:00;;;;;;;2.20;1.38;;;;;;;16.99;96.06;98075.34;5051021;28;20091;-78
2021/08/07 13:58:27;;;;;;;5.22;1.70;;;;;;;16.98;94.90;98074.53;5051054;28;20048;-78
2021/08/07 14:00:54;;;;;;;7.28;1.88;;;;;;;17.06;95.53;98056.78;5053465;28;20139;-78
2021/08/07 14:03:26;;;;;;;2.90;2.03;;;;;;;17.01;96.66;98039.41;5070838;28;20133;-78
2021/08/07 14:05:53;;;;;;;7.15;1.95;;;;;;;17.02;95.76;98028.19;5062203;28;20045;-78
2021/08/07 14:08:21;;;;;;;3.67;1.95;;;;;;;17.00;97.32;98019.38;5051507;28;20076;-78
2021/08/07 14:10:48;;;;;;;2.00;1.45;;;;;;;16.96;96.03;98016.28;5050486;28;20118;-79
2021/08/07 14:13:15;;;;;;;4.25;1.58;;;;;;;16.86;95.26;98026.28;5053183;28;20500;-78
2021/08/07 14:15:41;;;;;;;3.88;1.80;;;;;;;16.88;95.66;98049.69;5069358;28;20059;-79
2021/08/07 14:18:08;;;;;;;3.17;1.58;;;;;;;16.76;95.70;98037.97;5064107;28;20052;-79
2021/08/07 14:20:35;;;;;;;2.53;1.50;;;;;;;16.77;96.33;98062.41;5071259;28;20057;-79
2021/08/07 14:23:02;;;;;;;3.80;1.67;;;;;;;16.79;95.54;98062.97;5055748;28;20138;-79
2021/08/07 14:25:31;;;;;;;4.78;1.80;;;;;;;16.81;96.31;98060.78;5056599;28;20102;-79
2021/08/07 14:27:59;;;;;;;3.78;1.65;;;;;;;16.84;95.98;98053.16;5051429;28;20052;-79
2021/08/07 14:30:26;;;;;;;4.30;1.67;;;;;;;16.85;97.20;98058.41;5051752;28;20099;-79
2021/08/07 14:32:53;;;;;;;3.20;1.60;;;;;;;16.91;96.16;98042.88;5052329;28;20041;-79
2021/08/07 14:35:20;;;;;;;3.03;1.90;;;;;;;16.97;95.90;98036.34;5067074;28;20049;-79
2021/08/07 14:37:47;;;;;;;3.42;1.98;;;;;;;16.86;95.14;98024.38;5069565;28;20476;-79
2021/08/07 14:40:15;;;;;;;3.50;1.90;;;;;;;16.86;96.56;98021.63;5055237;28;20104;-78
2021/08/07 14:42:43;;;;;;;2.78;1.58;;;;;;;16.68;95.19;98009.03;5055286;28;20068;-79
2021/08/07 14:45:11;;;;;;;5.07;1.60;;;;;;;16.62;96.39;98010.06;5067390;28;20052;-79
2021/08/07 14:47:38;;;;;;;3.55;1.58;;;;;;;16.64;96.39;98010.63;5071436;28;20044;-79
2021/08/07 14:50:06;;;;;;;4.15;2.47;;;;;;;16.56;94.45;98016.53;5059404;28;20094;-79
2021/08/07 14:52:33;;;;;;;1.77;1.38;;;;;;;16.50;95.29;98036.72;5070533;28;20447;-80
2021/08/07 14:54:59;;;;;;;3.38;1.55;;;;;;;16.43;95.45;98045.97;5072430;28;20465;-80
2021/08/07 14:57:26;;;;;;;2.95;1.45;;;;;;;16.46;94.86;98066.59;5060809;28;20098;-81
2021/08/07 14:59:54;;;;;;;8.85;1.40;;;;;;;16.35;96.86;98065.59;5055114;28;20511;-80
2021/08/07 15:02:21;;;;;;;6.18;1.45;;;;;;;16.34;99.12;98074.06;5054764;28;20056;-80
2021/08/07 15:04:48;;;;;;;6.93;2.05;;;;;;;16.23;97.12;98116.97;5054437;28;20471;-80
2021/08/07 15:07:15;;;;;;;2.47;1.27;;;;;;;16.23;97.82;98133.41;5054667;28;20049;-80
2021/08/07 15:09:41;;;;;;;3.58;1.67;;;;;;;16.35;96.60;98136.91;5054102;28;20485;-81
2021/08/07 15:12:08;;;;;;;2.83;1.38;;;;;;;16.23;96.04;98101.31;5054284;28;20122;-80
2021/08/07 15:14:35;;;;;;;3.40;1.50;;;;;;;16.31;99.26;98112.97;5054892;28;20114;-80
2021/08/07 15:17:04;;;;;;;2.30;1.70;;;;;;;16.38;98.87;98116.38;5054429;28;20045;-80
2021/08/07 15:19:31;;;;;;;5.40;1.42;;;;;;;16.40;95.27;98093.09;5054585;28;20053;-80
2021/08/07 15:21:58;;;;;;;5.20;1.60;;;;;;;16.49;96.42;98079.81;5054588;28;20102;-80
2021/08/07 15:24:25;;;;;;;2.65;1.20;;;;;;;16.43;95.66;98073.41;5053257;28;20057;-80
2021/08/07 15:26:54;;;;;;;2.30;1.65;;;;;;;16.44;95.74;98075.06;5054303;28;20173;-80
2021/08/07 15:29:20;;;;;;;3.25;1.10;;;;;;;16.50;96.76;98075.13;5054361;28;20060;-80
2021/08/07 15:31:48;;;;;;;2.25;1.75;;;;;;;16.63;96.96;98069.31;5055639;28;20068;-81
2021/08/07 15:34:19;;;;;;;2.30;1.10;;;;;;;16.67;96.56;98088.88;5056065;28;20506;-80
2021/08/07 15:36:45;;;;;;;2.58;1.20;;;;;;;16.66;95.63;98087.19;5074094;28;20140;-80
2021/08/07 15:39:12;;;;;;;4.78;1.20;;;;;;;16.72;93.78;98075.22;5073686;28;20075;-80
2021/08/07 15:41:39;;;;;;;1.60;1.05;;;;;;;16.65;94.88;98075.41;5053776;28;20114;-80
2021/08/07 15:44:06;;;;;;;1.98;1.40;;;;;;;16.55;95.75;98069.75;5053177;28;20118;-80
2021/08/07 15:46:33;;;;;;;3.88;1.00;;;;;;;16.59;94.99;98055.28;5053599;28;20123;-80
2021/08/07 15:49:00;;;;;;;2.47;1.10;;;;;;;16.75;92.87;98042.59;5054383;28;20137;-80
2021/08/07 15:51:28;;;;;;;5.65;0.90;;;;;;;16.79;93.16;98026.47;5053823;28;20103;-80
2021/08/07 15:53:55;;;;;;;1.83;1.20;;;;;;;16.76;92.79;98038.78;5053489;28;20447;-80
2021/08/07 15:56:21;;;;;;;1.98;1.10;;;;;;;16.86;92.86;98027.13;5062490;28;20566;-80
2021/08/07 15:58:48;;;;;;;1.63;1.10;;;;;;;16.92;93.95;98012.41;5073127;28;20044;-80
2021/08/07 16:01:23;;;;;;;1.92;1.20;;;;;;;16.89;95.23;98023.91;5059872;28;20053;-80
2021/08/07 16:03:49;;;;;;;4.43;1.20;;;;;;;16.97;94.52;98034.44;5053435;28;20459;-80
2021/08/07 16:06:16;;;;;;;5.93;1.52;;;;;;;17.23;93.86;98051.25;5053646;28;20052;-80
2021/08/07 16:08:44;;;;;;;2.22;1.10;;;;;;;17.19;91.27;98033.59;5052602;28;20107;-80
2021/08/07 16:11:12;;;;;;;1.45;1.05;;;;;;;17.45;89.95;98053.16;5054486;28;20056;-81
2021/08/07 16:13:39;;;;;;;2.00;1.10;;;;;;;17.47;93.65;98048.22;5064458;28;20098;-80
2021/08/07 16:16:06;;;;;;;3.28;1.17;;;;;;;17.44;90.12;98026.78;5071656;28;20049;-80
2021/08/07 16:18:33;;;;;;;3.08;1.83;;;;;;;17.45;92.07;98029.25;5053697;28;20048;-80
2021/08/07 16:21:05;;;;;;;2.92;1.48;;;;;;;17.55;91.70;98034.03;5053750;28;20106;-80
2021/08/07 16:23:32;;;;;;;3.03;1.20;;;;;;;17.44;93.31;98024.03;5068237;28;20107;-80
2021/08/07 16:26:08;;;;;;;2.08;1.30;;;;;;;17.36;92.26;98035.44;5072140;28;20079;-80
2021/08/07 16:28:34;;;;;;;1.60;1.08;;;;;;;17.28;92.71;98018.34;5059835;28;20048;-81
2021/08/07 16:31:01;;;;;;;2.03;1.13;;;;;;;17.21;91.70;98034.19;5053101;28;20053;-80
2021/08/07 16:33:29;;;;;;;5.53;1.30;;;;;;;17.07;92.76;98016.44;5058518;28;20041;-80
2021/08/07 16:35:58;;;;;;;1.30;1.17;;;;;;;16.99;93.57;98045.97;5072482;28;20044;-80
2021/08/07 16:38:31;;;;;;;2.75;1.50;;;;;;;16.96;92.89;98043.75;5070325;28;20442;-81
2021/08/07 16:40:57;;;;;;;1.70;1.10;;;;;;;16.95;93.29;98035.75;5054107;28;20053;-81
2021/08/07 16:43:26;;;;;;;2.80;1.55;;;;;;;16.95;95.49;98046.75;5072090;28;20122;-81
2021/08/07 16:45:52;;;;;;;2.05;1.38;;;;;;;16.88;93.33;98037.88;5057087;28;20041;-81
2021/08/07 16:48:35;;;;;;;7.28;1.60;;;;;;;16.92;95.46;98061.81;5052765;28;23159;-81
2021/08/07 16:51:02;;;;;;;5.22;1.50;;;;;;;17.05;95.30;98037.81;5062750;28;20049;-81
2021/08/07 16:53:29;;;;;;;4.13;1.48;;;;;;;17.06;95.85;98029.34;5070912;28;20044;-81
2021/08/07 16:55:56;;;;;;;2.80;1.30;;;;;;;17.05;95.89;98046.88;5061981;28;20124;-81
2021/08/07 16:58:23;;;;;;;3.28;1.13;;;;;;;17.10;94.59;98046.97;5052523;28;20496;-81
2021/08/07 17:00:51;;;;;;;13.50;2.95;;;;;;;17.10;93.64;98038.72;5069531;28;20037;-81
2021/08/07 17:03:18;;;;;;;3.58;1.55;;;;;;;17.26;93.73;98047.97;5064466;28;20048;-81
2021/08/07 17:05:47;;;;;;;2.53;1.30;;;;;;;17.23;93.95;98011.97;5052195;28;20546;-81
2021/08/07 17:08:14;;;;;;;3.65;1.27;;;;;;;17.40;93.98;98022.88;5051924;28;20045;-81
2021/08/07 17:10:41;;;;;;;9.85;2.30;;;;;;;17.45;93.08;98029.25;5051476;28;20065;-81
2021/08/07 17:13:08;;;;;;;2.30;1.08;;;;;;;17.40;94.81;98022.88;5052154;28;20068;-81
2021/08/07 17:15:37;;;;;;;2.20;1.30;;;;;;;17.41;93.49;98017.13;5051780;28;20492;-81
2021/08/07 17:18:07;;;;;;;3.87;1.23;;;;;;;17.36;92.00;98033.56;5052444;28;20157;-81
2021/08/07 17:20:34;;;;;;;5.10;1.70;;;;;;;17.24;93.73;98022.69;5051488;28;20128;-81
2021/08/07 17:23:02;;;;;;;3.15;1.23;;;;;;;17.19;93.73;98017.13;5050653;28;20543;-81
2021/08/07 17:25:28;;;;;;;3.97;1.20;;;;;;;17.05;91.94;98026.84;5051997;28;20086;-81
2021/08/07 17:27:55;;;;;;;3.75;1.23;;;;;;;16.84;91.51;98037.50;5050979;28;20106;-81
2021/08/07 17:30:22;;;;;;;2.03;1.20;;;;;;;16.68;92.33;98036.47;5052147;28;20041;-81
2021/08/07 17:32:49;;;;;;;2.60;1.30;;;;;;;16.67;93.15;98045.78;5051655;28;20451;-81
2021/08/07 17:35:17;;;;;;;6.57;1.63;;;;;;;16.60;92.73;98051.44;5051169;28;20053;-81
2021/08/07 17:37:44;;;;;;;2.22;1.38;;;;;;;16.68;93.56;98041.97;5050231;28;20052;-81
2021/08/07 17:40:14;;;;;;;2.58;1.10;;;;;;;16.63;91.46;98039.97;5051499;28;20045;-81
2021/08/07 17:42:40;;;;;;;3.35;1.20;;;;;;;16.66;93.37;98043.28;5055551;28;20293;-81
2021/08/07 17:45:10;;;;;;;1.38;1.20;;;;;;;16.71;93.59;98030.50;5064465;28;20052;-81
2021/08/07 17:47:36;;;;;;;1.90;1.50;;;;;;;16.69;93.46;98040.88;5066701;28;20106;-81
2021/08/07 17:50:04;;;;;;;7.20;1.63;;;;;;;16.50;91.91;98050.44;5071344;28;20102;-80
2021/08/07 17:52:32;;;;;;;3.17;1.60;;;;;;;16.51;93.42;98071.31;5070045;28;20130;-80
2021/08/07 17:54:59;;;;;;;4.13;1.30;;;;;;;16.53;92.73;98077.38;5056202;28;20102;-80
2021/08/07 17:57:26;;;;;;;1.98;1.30;;;;;;;16.41;93.07;98075.56;5063902;28;20458;-80
2021/08/07 17:59:53;;;;;;;3.53;1.00;;;;;;;16.48;92.28;98086.38;5070861;28;20045;-80
2021/08/07 18:02:21;;;;;;;4.70;1.25;;;;;;;16.37;91.33;98079.06;5053369;28;20100;-80
2021/08/07 18:04:48;;;;;;;14.40;2.28;;;;;;;16.43;91.97;98083.56;5052349;28;20082;-80
2021/08/07 18:07:15;;;;;;;2.53;1.02;;;;;;;16.47;93.01;98073.75;5070719;28;20498;-80
2021/08/07 18:09:43;;;;;;;1.00;0.90;;;;;;;16.42;91.97;98079.13;5070156;28;20102;-80
2021/08/07 18:12:10;;;;;;;4.10;1.20;;;;;;;16.44;92.70;98057.78;5066761;28;20488;-80
2021/08/07 18:14:37;;;;;;;1.77;1.10;;;;;;;16.49;92.70;98065.28;5070156;28;20487;-80
2021/08/07 18:17:05;;;;;;;1.10;0.88;;;;;;;16.48;92.23;98086.38;5057273;28;20121;-81
2021/08/07 18:19:33;;;;;;;3.85;1.30;;;;;;;16.57;92.04;98089.53;5051187;28;20063;-80
2021/08/07 18:22:00;;;;;;;1.30;1.20;;;;;;;16.54;91.62;98087.28;5050221;28;20510;-81
2021/08/07 18:24:27;;;;;;;6.63;1.20;;;;;;;16.56;91.80;98085.09;5051237;28;20079;-80
2021/08/07 18:26:55;;;;;;;1.42;1.23;;;;;;;16.49;91.58;98088.03;5050768;28;20095;-80
2021/08/07 18:29:21;;;;;;;2.65;0.93;;;;;;;16.47;91.89;98103.94;5066107;28;20110;-80
2021/08/07 18:31:48;;;;;;;2.78;1.00;;;;;;;16.38;91.79;98108.97;5070786;28;20178;-80
2021/08/07 18:34:15;;;;;;;5.97;1.17;;;;;;;16.40;91.65;98106.81;5054669;28;20095;-80
2021/08/07 18:36:42;;;;;;;4.30;0.98;;;;;;;16.34;93.06;98107.81;5054751;28;20157;-80
2021/08/07 18:39:08;;;;;;;1.42;0.95;;;;;;;16.22;92.64;98093.34;5054389;28;20500;-80
2021/08/07 18:41:35;;;;;;;3.17;1.25;;;;;;;16.27;92.43;98101.66;5063355;28;20098;-80
2021/08/07 18:44:04;;;;;;;5.38;1.02;;;;;;;16.12;92.93;98109.63;5063876;28;20102;-80
2021/08/07 18:46:30;;;;;;;3.42;1.17;;;;;;;15.99;93.81;98102.50;5073744;28;20049;-80
2021/08/07 18:48:57;;;;;;;1.33;1.00;;;;;;;16.06;93.96;98108.69;5068873;28;20542;-80
2021/08/07 18:51:24;;;;;;;2.72;0.75;;;;;;;16.10;93.88;98124.38;5054514;28;20165;-80
2021/08/07 18:53:51;;;;;;;3.90;1.20;;;;;;;16.04;93.63;98116.34;5055966;28;20059;-81
2021/08/07 18:56:18;;;;;;;2.97;1.27;;;;;;;15.98;94.55;98120.06;5074071;28;20102;-80
2021/08/07 18:58:51;;;;;;;3.60;1.20;;;;;;;15.83;95.08;98110.47;5060229;28;20049;-80
2021/08/07 19:01:19;;;;;;;1.90;1.15;;;;;;;15.78;95.57;98104.91;5054618;28;20053;-80
2021/08/07 19:03:46;;;;;;;4.38;1.80;;;;;;;15.88;94.95;98105.09;5054403;28;20102;-80
2021/08/07 19:06:13;;;;;;;1.95;1.23;;;;;;;15.86;95.88;98104.47;5070256;28;20554;-79
2021/08/07 19:08:39;;;;;;;2.22;1.20;;;;;;;15.69;95.28;98089.91;5073129;28;20048;-80
2021/08/07 19:11:06;;;;;;;1.23;0.90;;;;;;;15.79;95.27;98092.84;5058146;28;20049;-80
2021/08/07 19:13:45;;;;;;;3.15;1.30;;;;;;;15.68;94.98;98061.66;5053983;28;20492;-79
2021/08/07 19:16:11;;;;;;;3.78;1.30;;;;;;;15.60;95.76;98069.41;5055323;28;20049;-79
2021/08/07 19:18:39;;;;;;;5.28;1.20;;;;;;;15.68;96.92;98082.75;5054129;28;20140;-80
2021/08/07 19:21:06;;;;;;;1.60;0.85;;;;;;;15.59;95.34;98074.06;5058451;28;20122;-80
2021/08/07 19:23:33;;;;;;;2.08;1.30;;;;;;;15.66;96.03;98091.22;5053003;28;20443;-80
2021/08/07 19:26:00;;;;;;;1.10;1.00;;;;;;;15.52;95.06;98067.91;5054556;28;20049;-80
2021/08/07 19:28:27;;;;;;;2.13;1.00;;;;;;;15.46;95.54;98079.84;5053805;28;20045;-80
2021/08/07 19:30:53;;;;;;;5.82;1.00;;;;;;;15.42;95.76;98065.81;5065551;28;20393;-80
2021/08/07 19:33:20;;;;;;;3.55;1.13;;;;;;;15.49;95.28;98080.19;5073435;28;20102;-80
2021/08/07 19:35:49;;;;;;;3.80;1.15;;;;;;;15.44;95.07;98076.53;5072685;28;20078;-80
2021/08/07 19:38:15;;;;;;;1.00;0.90;;;;;;;15.32;95.45;98068.34;5053557;28;20049;-80
2021/08/07 19:40:42;;;;;;;2.50;1.00;;;;;;;15.42;94.68;98109.63;5053220;28;20049;-80
2021/08/07 19:43:09;;;;;;;1.38;0.90;;;;;;;15.36;94.88;98102.38;5065520;28;20458;-79
2021/08/07 19:45:37;;;;;;;1.40;0.70;;;;;;;15.30;95.55;98112.38;5071976;28;20488;-79
2021/08/07 19:48:04;;;;;;;5.65;1.08;;;;;;;15.31;95.21;98122.28;5061064;28;20052;-80
2021/08/07 19:50:32;;;;;;;5.90;1.77;;;;;;;15.16;95.51;98114.56;5053220;28;20102;-80
2021/08/07 19:53:00;;;;;;;4.13;1.00;;;;;;;15.13;96.42;98134.22;5063238;28;20121;-80
2021/08/07 19:55:27;;;;;;;1.45;0.80;;;;;;;15.14;95.84;98148.72;5057191;28;20048;-80
2021/08/07 19:57:54;;;;;;;5.93;0.80;;;;;;;15.14;96.70;98162.41;5053858;28;20060;-80
2021/08/07 20:00:21;;;;;;;0.85;0.55;;;;;;;15.11;96.76;98162.88;5061244;28;20056;-80
2021/08/07 20:02:48;;;;;;;0.82;0.77;;;;;;;15.01;96.35;98171.72;5066135;28;20129;-80
2021/08/07 20:05:14;;;;;;;2.13;0.60;;;;;;;15.07;96.24;98181.69;5067129;28;20507;-80
2021/08/07 20:07:41;;;;;;;1.88;0.60;;;;;;;14.98;96.46;98181.22;5053051;28;20048;-80
2021/08/07 20:10:10;;;;;;;0.60;0.60;;;;;;;14.99;96.78;98185.59;5052777;28;20454;-80
2021/08/07 20:12:38;;;;;;;1.77;0.80;;;;;;;15.02;97.03;98190.63;5053049;28;20056;-80
2021/08/07 20:15:06;;;;;;;4.90;0.75;;;;;;;14.88;96.59;98171.94;5060688;28;20063;-80
2021/08/07 20:17:33;;;;;;;0.85;0.70;;;;;;;14.97;97.13;98189.66;5057997;28;20102;-79
2021/08/07 20:20:00;;;;;;;1.10;0.82;;;;;;;14.90;97.37;98183.47;5051860;28;20496;-80
2021/08/07 20:22:27;;;;;;;1.27;0.90;;;;;;;14.92;97.61;98184.91;5060501;28;20052;-80
2021/08/07 20:24:54;;;;;;;1.15;0.80;;;;;;;14.85;97.75;98192.38;5072765;28;20431;-80
2021/08/07 20:27:23;;;;;;;3.42;1.00;;;;;;;14.86;96.99;98191.31;5060045;28;20097;-79
2021/08/07 20:29:50;;;;;;;2.38;0.50;;;;;;;14.81;97.50;98189.31;5071937;28;20094;-79
2021/08/07 20:32:17;;;;;;;0.88;0.60;;;;;;;14.82;97.09;98192.84;5072653;28;20241;-80
2021/08/07 20:34:47;;;;;;;1.40;0.70;;;;;;;14.76;97.40;98183.69;5065641;28;20098;-80
2021/08/07 20:37:15;;;;;;;2.55;0.65;;;;;;;14.78;97.74;98192.47;5052031;28;20055;-80
2021/08/07 20:39:41;;;;;;;4.93;1.25;;;;;;;14.75;97.52;98197.59;5052494;28;20063;-79
2021/08/07 20:42:09;;;;;;;3.53;0.68;;;;;;;14.67;97.66;98196.88;5053587;28;20049;-80
2021/08/07 20:44:37;;;;;;;0.80;0.80;;;;;;;14.63;98.07;98190.22;5061421;28;20061;-80
2021/08/07 20:47:04;;;;;;;5.65;0.65;;;;;;;14.65;97.37;98203.66;5051873;28;20068;-80
2021/08/07 20:49:31;;;;;;;1.33;0.60;;;;;;;14.55;97.53;98195.16;5052988;28;20264;-80
2021/08/07 20:51:58;;;;;;;0.47;0.47;;;;;;;14.58;97.65;98200.16;5070574;28;20048;-80
2021/08/07 20:54:25;;;;;;;7.00;0.70;;;;;;;14.52;97.91;98208.22;5071952;28;20071;-80
2021/08/07 20:56:52;;;;;;;2.30;0.60;;;;;;;14.51;97.82;98211.19;5054894;28;20098;-79
2021/08/07 20:59:19;;;;;;;1.50;0.75;;;;;;;14.44;98.47;98216.78;5052630;28;20045;-79
2021/08/07 21:01:47;;;;;;;1.55;0.80;;;;;;;14.30;98.08;98196.16;5051675;28;20491;-79
2021/08/07 21:04:14;;;;;;;7.35;0.80;;;;;;;14.32;98.14;98200.31;5051734;28;20049;-79
2021/08/07 21:06:41;;;;;;;2.63;0.82;;;;;;;14.32;98.14;98214.00;5051409;28;20519;-79
2021/08/07 21:09:07;;;;;;;1.20;0.70;;;;;;;14.42;97.86;98232.59;5051854;28;20549;-79
2021/08/07 21:11:35;;;;;;;2.92;0.70;;;;;;;14.39;98.07;98219.38;5068477;28;20492;-80
2021/08/07 21:14:03;;;;;;;5.47;2.65;;;;;;;14.42;98.12;98238.06;5052270;28;20138;-79
2021/08/07 21:16:30;;;;;;;3.03;1.20;;;;;;;14.49;97.68;98221.53;5055755;28;20086;-79
2021/08/07 21:18:59;;;;;;;1.80;1.30;;;;;;;14.44;97.92;98233.19;5056853;28;20416;-79
2021/08/07 21:21:25;;;;;;;1.77;1.15;;;;;;;14.46;97.71;98233.78;5051042;28;20513;-79
2021/08/07 21:23:52;;;;;;;1.83;1.23;;;;;;;14.42;97.78;98238.06;5051389;28;20045;-79
2021/08/07 21:26:19;;;;;;;2.72;1.13;;;;;;;14.39;97.55;98234.94;5051861;28;20060;-79
2021/08/07 21:28:46;;;;;;;7.22;1.00;;;;;;;14.26;97.95;98220.41;5052810;28;20045;-79
2021/08/07 21:31:12;;;;;;;1.00;0.90;;;;;;;14.20;98.62;98226.78;5071074;28;20064;-80
2021/08/07 21:33:39;;;;;;;1.60;0.80;;;;;;;14.22;98.47;98237.50;5070270;28;20054;-79
2021/08/07 21:36:07;;;;;;;8.20;1.02;;;;;;;14.14;98.09;98241.38;5071230;28;20051;-79
2021/08/07 21:38:34;;;;;;;1.60;0.95;;;;;;;14.05;98.43;98231.84;5071492;28;20049;-79
2021/08/07 21:41:01;;;;;;;1.75;0.68;;;;;;;13.98;98.51;98238.22;5055305;28;20102;-79
2021/08/07 21:43:28;;;;;;;3.72;0.93;;;;;;;13.97;99.28;98255.69;5051963;28;20114;-79
2021/08/07 21:45:57;;;;;;;4.00;1.02;;;;;;;13.87;99.52;98249.91;5060463;28;20127;-79
2021/08/07 21:48:24;;;;;;;1.67;0.88;;;;;;;13.92;98.59;98260.16;5051942;28;20053;-79
2021/08/07 21:50:51;;;;;;;1.70;1.30;;;;;;;13.92;99.40;98271.91;5058409;28;20057;-79